createdAt,value
2023-04-11T00:01:23.757Z,9.40
2023-04-11T00:03:50.931Z,9.40
2023-04-11T00:06:17.796Z,9.40
2023-04-11T00:08:44.622Z,9.30
2023-04-11T00:11:11.376Z,9.40
2023-04-11T00:13:38.468Z,9.40
2023-04-11T00:16:09.005Z,9.40
2023-04-11T00:18:37.861Z,9.30
2023-04-11T00:21:05.362Z,9.40
2023-04-11T00:23:32.063Z,9.40
2023-04-11T00:25:58.765Z,9.40
2023-04-11T00:28:25.444Z,9.40
2023-04-11T00:33:19.287Z,9.40
2023-04-11T00:35:46.083Z,9.40
2023-04-11T00:38:12.826Z,9.30
2023-04-11T00:40:39.740Z,9.40
2023-04-11T00:43:06.556Z,9.30
2023-04-11T00:45:33.737Z,9.40
2023-04-11T00:48:01.224Z,9.40
2023-04-11T00:50:28.381Z,9.40
2023-04-11T00:52:56.998Z,9.30
2023-04-11T00:55:23.811Z,9.30
2023-04-11T00:57:55.272Z,9.40
2023-04-11T01:00:22.865Z,9.40
2023-04-11T01:02:49.903Z,9.50
2023-04-11T01:05:17.478Z,9.40
2023-04-11T01:07:48.707Z,9.40
2023-04-11T01:10:17.232Z,9.40
2023-04-11T01:12:45.418Z,9.40
2023-04-11T01:15:12.315Z,9.40
2023-04-11T01:17:39.326Z,9.40
2023-04-11T01:20:07.788Z,9.40
2023-04-11T01:22:37.226Z,9.30
2023-04-11T01:25:04.936Z,9.30
2023-04-11T01:27:34.092Z,9.30
2023-04-11T01:30:01.851Z,9.30
2023-04-11T01:32:28.699Z,9.20
2023-04-11T01:34:58.079Z,9.20
2023-04-11T01:37:25.305Z,9.20
2023-04-11T01:39:52.318Z,9.20
2023-04-11T01:42:20.986Z,9.20
2023-04-11T01:44:49.796Z,9.20
2023-04-11T01:47:16.565Z,9.20
2023-04-11T01:49:43.603Z,9.20
2023-04-11T01:52:10.574Z,9.20
2023-04-11T01:54:37.371Z,9.20
2023-04-11T01:57:04.367Z,9.30
2023-04-11T01:59:31.109Z,9.20
2023-04-11T02:01:58.200Z,9.20
2023-04-11T02:04:25.114Z,9.20
2023-04-11T02:06:52.039Z,9.20
2023-04-11T02:09:18.706Z,9.20
2023-04-11T02:11:45.753Z,9.20
2023-04-11T02:14:14.310Z,9.20
2023-04-11T02:16:55.039Z,9.20
2023-04-11T02:19:23.359Z,9.30
2023-04-11T02:21:50.165Z,9.30
2023-04-11T02:24:17.043Z,9.30
2023-04-11T02:26:43.796Z,9.30
2023-04-11T02:29:10.662Z,9.40
2023-04-11T02:31:38.458Z,9.40
2023-04-11T02:34:05.330Z,9.40
2023-04-11T02:36:32.032Z,9.30
2023-04-11T02:38:58.720Z,9.30
2023-04-11T02:41:25.649Z,9.40
2023-04-11T02:43:52.365Z,9.50
2023-04-11T02:48:46.312Z,9.50
2023-04-11T02:51:13.023Z,9.50
2023-04-11T02:56:10.894Z,9.40
2023-04-11T02:58:41.966Z,9.50
2023-04-11T03:01:11.973Z,9.40
2023-04-11T03:03:39.074Z,9.50
2023-04-11T03:06:09.038Z,9.50
2023-04-11T03:08:37.371Z,9.50
2023-04-11T03:11:04.418Z,9.50
2023-04-11T03:13:31.299Z,9.50
2023-04-11T03:15:58.026Z,9.50
2023-04-11T03:18:24.906Z,9.40
2023-04-11T03:20:52.192Z,9.40
2023-04-11T03:23:18.940Z,9.30
2023-04-11T03:25:47.911Z,9.30
2023-04-11T03:28:15.236Z,9.30
2023-04-11T03:30:42.827Z,9.30
2023-04-11T03:33:09.959Z,9.20
2023-04-11T03:35:37.223Z,9.30
2023-04-11T03:38:04.340Z,9.30
2023-04-11T03:40:31.089Z,9.20
2023-04-11T03:42:58.098Z,9.20
2023-04-11T03:45:24.795Z,9.20
2023-04-11T03:47:51.503Z,9.20
2023-04-11T03:50:18.356Z,9.30
2023-04-11T03:52:45.170Z,9.30
2023-04-11T03:55:12.171Z,9.20
2023-04-11T03:57:38.949Z,9.20
2023-04-11T04:00:06.962Z,9.20
2023-04-11T04:02:33.989Z,9.10
2023-04-11T04:05:01.506Z,9.10
2023-04-11T04:07:28.652Z,9.10
2023-04-11T04:09:55.430Z,9.00
2023-04-11T04:12:22.293Z,9.00
2023-04-11T04:14:49.237Z,9.00
2023-04-11T04:17:16.505Z,9.00
2023-04-11T04:19:44.265Z,8.90
2023-04-11T04:22:12.218Z,9.00
2023-04-11T04:24:39.635Z,8.90
2023-04-11T04:27:09.286Z,8.90
2023-04-11T04:29:39.663Z,8.90
2023-04-11T04:32:12.846Z,8.90
2023-04-11T04:34:49.372Z,8.90
2023-04-11T04:37:23.783Z,8.90
2023-04-11T04:39:56.933Z,8.90
2023-04-11T04:42:25.727Z,8.90
2023-04-11T04:44:53.979Z,9.00
2023-04-11T04:47:24.259Z,8.80
2023-04-11T04:49:56.018Z,8.80
2023-04-11T04:52:27.563Z,8.80
2023-04-11T04:54:58.339Z,8.70
2023-04-11T04:57:25.958Z,8.70
2023-04-11T04:59:52.991Z,8.80
2023-04-11T05:02:19.820Z,8.80
2023-04-11T05:04:46.782Z,8.80
2023-04-11T05:07:14.480Z,8.70
2023-04-11T05:09:41.356Z,8.70
2023-04-11T05:12:08.797Z,8.70
2023-04-11T05:14:35.529Z,8.70
2023-04-11T05:17:02.405Z,8.70
2023-04-11T05:19:29.273Z,8.80
2023-04-11T05:21:56.212Z,8.80
2023-04-11T05:24:22.972Z,8.80
2023-04-11T05:26:49.658Z,8.70
2023-04-11T05:29:16.435Z,8.50
2023-04-11T05:31:43.258Z,8.20
2023-04-11T05:34:09.954Z,8.00
2023-04-11T05:36:36.799Z,7.50
2023-04-11T05:39:04.067Z,7.20
2023-04-11T05:41:30.984Z,7.10
2023-04-11T05:43:57.974Z,7.20
2023-04-11T05:46:24.874Z,7.20
2023-04-11T05:48:51.642Z,7.20
2023-04-11T05:51:18.380Z,7.20
2023-04-11T05:53:45.660Z,7.20
2023-04-11T05:56:12.879Z,7.30
2023-04-11T05:58:42.884Z,7.30
2023-04-11T06:01:14.257Z,7.30
2023-04-11T06:03:41.154Z,7.30
2023-04-11T06:06:08.396Z,7.40
2023-04-11T06:08:35.171Z,7.40
2023-04-11T06:11:01.920Z,7.50
2023-04-11T06:13:28.687Z,7.40
2023-04-11T06:15:55.566Z,7.50
2023-04-11T06:18:22.360Z,7.40
2023-04-11T06:20:49.623Z,7.40
2023-04-11T06:23:16.437Z,7.50
2023-04-11T06:25:43.213Z,7.40
2023-04-11T06:28:09.997Z,7.40
2023-04-11T06:30:39.673Z,7.50
2023-04-11T06:33:06.433Z,7.60
2023-04-11T06:35:33.182Z,7.80
2023-04-11T06:37:59.884Z,8.00
2023-04-11T06:40:26.692Z,8.10
2023-04-11T06:42:53.501Z,8.00
2023-04-11T06:45:20.194Z,8.00
2023-04-11T06:47:47.081Z,7.90
2023-04-11T06:50:13.844Z,7.80
2023-04-11T06:52:40.734Z,7.70
2023-04-11T06:55:08.368Z,7.70
2023-04-11T06:57:35.221Z,7.70
2023-04-11T07:00:02.293Z,7.80
2023-04-11T07:02:29.276Z,7.80
2023-04-11T07:04:56.400Z,7.80
2023-04-11T07:07:23.210Z,7.80
2023-04-11T07:09:50.040Z,7.90
2023-04-11T07:12:16.792Z,8.00
2023-04-11T07:14:43.515Z,8.00
2023-04-11T07:17:10.295Z,7.90
2023-04-11T07:19:37.057Z,7.90
2023-04-11T07:22:04.806Z,7.90
2023-04-11T07:24:31.616Z,8.00
2023-04-11T07:29:25.942Z,8.30
2023-04-11T07:31:53.293Z,8.50
2023-04-11T07:34:20.536Z,8.60
2023-04-11T07:36:47.899Z,8.60
2023-04-11T07:39:15.253Z,8.70
2023-04-11T07:41:41.987Z,8.60
2023-04-11T07:44:09.547Z,8.50
2023-04-11T07:46:36.306Z,8.50
2023-04-11T07:49:03.040Z,8.60
2023-04-11T07:51:29.801Z,8.90
2023-04-11T07:53:56.772Z,9.20
2023-04-11T07:56:23.623Z,9.40
2023-04-11T07:58:50.298Z,9.40
2023-04-11T08:01:21.748Z,9.60
2023-04-11T08:03:48.795Z,9.60
2023-04-11T08:06:15.852Z,9.80
2023-04-11T08:08:42.652Z,10.10
2023-04-11T08:11:09.448Z,10.40
2023-04-11T08:13:36.234Z,10.70
2023-04-11T08:16:10.999Z,11.10
2023-04-11T08:18:41.976Z,10.90
2023-04-11T08:21:10.943Z,10.60
2023-04-11T08:23:39.756Z,10.60
2023-04-11T08:26:08.080Z,10.50
2023-04-11T08:28:35.862Z,10.60
2023-04-11T08:31:04.079Z,10.70
2023-04-11T08:33:31.095Z,11.00
2023-04-11T08:35:57.950Z,10.90
2023-04-11T08:38:24.659Z,11.00
2023-04-11T08:40:51.657Z,10.70
2023-04-11T08:43:19.266Z,10.70
2023-04-11T08:45:46.388Z,10.90
2023-04-11T08:48:13.294Z,11.20
2023-04-11T08:50:42.303Z,11.40
2023-04-11T08:53:09.268Z,11.90
2023-04-11T08:55:44.817Z,11.90
2023-04-11T08:58:11.655Z,12.10
2023-04-11T09:00:38.409Z,12.10
2023-04-11T09:03:10.490Z,11.70
2023-04-11T09:05:43.397Z,11.50
2023-04-11T09:08:12.801Z,11.80
2023-04-11T09:10:41.771Z,11.60
2023-04-11T09:13:27.628Z,11.60
2023-04-11T09:16:21.087Z,11.70
2023-04-11T09:18:47.979Z,12.10
2023-04-11T09:21:16.417Z,11.90
2023-04-11T09:23:43.581Z,12.30
2023-04-11T09:26:12.263Z,12.50
2023-04-11T09:28:53.571Z,12.30
2023-04-11T09:31:43.840Z,12.50
2023-04-11T09:34:12.222Z,12.70
2023-04-11T09:36:39.417Z,12.50
2023-04-11T09:39:19.370Z,12.40
2023-04-11T09:41:46.549Z,12.30
2023-04-11T09:44:13.716Z,12.20
2023-04-11T09:46:56.782Z,12.20
2023-04-11T09:49:24.298Z,12.20
2023-04-11T09:51:52.386Z,12.50
2023-04-11T09:54:22.430Z,12.80
2023-04-11T09:56:49.631Z,13.40
2023-04-11T09:59:16.470Z,13.30
2023-04-11T10:01:43.469Z,13.20
2023-04-11T10:04:13.801Z,12.80
2023-04-11T10:06:53.663Z,12.70
2023-04-11T10:09:21.238Z,12.80
2023-04-11T10:11:48.098Z,12.60
2023-04-11T10:14:36.482Z,12.40
2023-04-11T10:17:23.677Z,12.60
2023-04-11T10:19:56.417Z,12.70
2023-04-11T10:22:50.650Z,12.90
2023-04-11T10:25:19.201Z,13.00
2023-04-11T10:28:04.082Z,13.00
2023-04-11T10:30:39.718Z,12.60
2023-04-11T10:33:17.600Z,12.80
2023-04-11T10:36:13.738Z,13.20
2023-04-11T10:38:40.993Z,13.20
2023-04-11T10:41:20.016Z,13.20
2023-04-11T10:43:46.783Z,13.60
2023-04-11T10:46:24.102Z,13.50
2023-04-11T10:49:04.983Z,13.30
2023-04-11T10:51:34.304Z,13.40
2023-04-11T10:54:01.894Z,13.30
2023-04-11T10:56:45.553Z,12.80
2023-04-11T10:59:31.076Z,12.40
2023-04-11T11:02:02.195Z,12.80
2023-04-11T11:04:32.771Z,13.50
2023-04-11T11:07:01.519Z,13.60
2023-04-11T11:09:28.892Z,13.60
2023-04-11T11:12:12.696Z,13.50
2023-04-11T11:14:41.160Z,13.30
2023-04-11T11:17:08.997Z,13.20
2023-04-11T11:19:36.496Z,12.90
2023-04-11T11:22:04.695Z,12.80
2023-04-11T11:24:31.493Z,12.60
2023-04-11T11:26:58.755Z,12.70
2023-04-11T11:29:34.305Z,12.60
2023-04-11T11:32:03.739Z,12.50
2023-04-11T11:34:32.626Z,12.30
2023-04-11T11:37:01.773Z,12.70
2023-04-11T11:39:32.396Z,13.20
2023-04-11T11:41:59.810Z,13.40
2023-04-11T11:44:28.305Z,12.90
2023-04-11T11:47:18.074Z,12.30
2023-04-11T11:49:51.991Z,12.10
2023-04-11T11:52:54.322Z,12.30
2023-04-11T11:55:22.359Z,12.90
2023-04-11T11:57:50.190Z,13.30
2023-04-11T12:00:25.062Z,13.90
2023-04-11T12:02:53.217Z,14.20
2023-04-11T12:05:20.568Z,13.60
2023-04-11T12:07:47.386Z,13.00
2023-04-11T12:10:16.693Z,12.60
2023-04-11T12:12:53.273Z,12.00
2023-04-11T12:15:22.947Z,12.00
2023-04-11T12:17:54.268Z,12.70
2023-04-11T12:20:26.367Z,13.50
2023-04-11T12:22:54.887Z,14.10
2023-04-11T12:25:22.420Z,14.20
2023-04-11T12:27:49.306Z,14.30
2023-04-11T12:30:16.163Z,14.70
2023-04-11T12:32:44.020Z,14.80
2023-04-11T12:35:11.604Z,14.70
2023-04-11T12:37:39.008Z,14.20
2023-04-11T12:40:13.049Z,14.00
2023-04-11T12:45:11.924Z,13.70
2023-04-11T12:47:39.096Z,13.60
2023-04-11T12:50:07.207Z,13.50
2023-04-11T12:52:34.396Z,13.90
2023-04-11T12:55:01.487Z,14.10
2023-04-11T12:57:28.238Z,14.00
2023-04-11T12:59:55.095Z,14.20
2023-04-11T13:02:21.997Z,14.60
2023-04-11T13:04:50.550Z,15.00
2023-04-11T13:07:17.268Z,14.70
2023-04-11T13:09:43.952Z,14.30
2023-04-11T13:12:10.968Z,14.00
2023-04-11T13:14:37.731Z,13.70
2023-04-11T13:17:04.791Z,13.70
2023-04-11T13:19:31.690Z,13.90
2023-04-11T13:21:58.509Z,14.20
2023-04-11T13:24:26.286Z,14.70
2023-04-11T13:26:53.133Z,14.70
2023-04-11T13:29:19.898Z,14.70
2023-04-11T13:31:46.780Z,15.30
2023-04-11T13:34:13.530Z,15.50
2023-04-11T13:36:40.362Z,15.40
2023-04-11T13:39:07.871Z,15.10
2023-04-11T13:41:34.669Z,15.20
2023-04-11T13:44:01.479Z,15.10
2023-04-11T13:46:28.180Z,14.80
2023-04-11T13:48:55.123Z,14.50
2023-04-11T13:51:21.950Z,14.20
2023-04-11T13:53:48.671Z,14.30
2023-04-11T13:56:15.526Z,14.80
2023-04-11T13:58:42.248Z,15.30
2023-04-11T14:01:08.997Z,15.30
2023-04-11T14:03:35.930Z,15.10
2023-04-11T14:06:03.504Z,15.10
2023-04-11T14:08:30.959Z,15.20
2023-04-11T14:10:57.759Z,15.50
2023-04-11T14:13:24.570Z,15.10
2023-04-11T14:16:01.364Z,14.60
2023-04-11T14:18:35.668Z,15.10
2023-04-11T14:21:03.347Z,15.00
2023-04-11T14:23:30.701Z,14.90
2023-04-11T14:25:57.479Z,14.30
2023-04-11T14:28:26.566Z,14.20
2023-04-11T14:30:55.173Z,14.60
2023-04-11T14:33:21.998Z,15.00
2023-04-11T14:35:50.269Z,14.90
2023-04-11T14:38:17.015Z,14.90
2023-04-11T14:40:44.427Z,14.70
2023-04-11T14:43:11.327Z,14.70
2023-04-11T14:45:38.228Z,14.60
2023-04-11T14:48:05.496Z,14.30
2023-04-11T14:50:32.525Z,14.00
2023-04-11T14:52:59.283Z,13.80
2023-04-11T14:55:26.088Z,13.50
2023-04-11T14:57:54.535Z,13.50
2023-04-11T15:00:22.580Z,13.50
2023-04-11T15:02:55.619Z,13.90
2023-04-11T15:05:24.014Z,14.20
2023-04-11T15:07:52.065Z,14.10
2023-04-11T15:10:21.031Z,13.70
2023-04-11T15:12:48.156Z,13.40
2023-04-11T15:15:16.047Z,13.50
2023-04-11T15:17:46.456Z,13.70
2023-04-11T15:20:16.902Z,14.00
2023-04-11T15:22:45.871Z,14.30
2023-04-11T15:25:14.875Z,14.50
2023-04-11T15:27:42.516Z,14.80
2023-04-11T15:30:10.343Z,14.80
2023-04-11T15:32:42.653Z,14.90
2023-04-11T15:35:10.013Z,14.80
2023-04-11T15:37:36.783Z,14.50
2023-04-11T15:40:06.141Z,14.50
2023-04-11T15:42:35.447Z,14.50
2023-04-11T15:45:02.634Z,14.60
2023-04-11T15:47:30.511Z,14.60
2023-04-11T15:49:59.017Z,14.50
2023-04-11T15:52:26.410Z,14.40
2023-04-11T15:54:53.281Z,14.30
2023-04-11T15:57:20.130Z,14.20
2023-04-11T15:59:46.897Z,14.20
2023-04-11T16:02:15.197Z,14.30
2023-04-11T16:04:45.303Z,14.20
2023-04-11T16:07:13.918Z,14.20
2023-04-11T16:09:40.699Z,14.00
2023-04-11T16:12:07.603Z,13.80
2023-04-11T16:14:34.354Z,13.60
2023-04-11T16:17:01.301Z,13.60
2023-04-11T16:19:28.150Z,13.70
2023-04-11T16:21:54.951Z,13.80
2023-04-11T16:24:21.705Z,13.80
2023-04-11T16:26:48.468Z,13.80
2023-04-11T16:29:15.233Z,13.80
2023-04-11T16:31:42.171Z,13.70
2023-04-11T16:34:08.914Z,13.60
2023-04-11T16:39:04.273Z,13.30
2023-04-11T16:41:36.275Z,13.20
2023-04-11T16:44:11.177Z,13.30
2023-04-11T16:46:42.065Z,13.40
2023-04-11T16:49:09.690Z,13.40
2023-04-11T16:51:37.248Z,13.20
2023-04-11T16:54:09.354Z,13.10
2023-04-11T16:56:36.932Z,13.10
2023-04-11T16:59:04.639Z,12.80
2023-04-11T17:01:31.707Z,12.70
2023-04-11T17:03:59.019Z,12.60
2023-04-11T17:06:27.187Z,12.70
2023-04-11T17:08:53.986Z,12.70
2023-04-11T17:11:20.793Z,12.80
2023-04-11T17:13:49.462Z,12.80
2023-04-11T17:16:17.626Z,12.80
2023-04-11T17:18:44.409Z,12.80
2023-04-11T17:21:11.264Z,12.70
2023-04-11T17:23:42.995Z,12.60
2023-04-11T17:26:11.158Z,12.60
2023-04-11T17:28:39.607Z,12.50
2023-04-11T17:31:17.649Z,12.40
2023-04-11T17:33:44.608Z,12.40
2023-04-11T17:36:12.573Z,12.30
2023-04-11T17:38:40.808Z,12.20
2023-04-11T17:41:14.573Z,12.20
2023-04-11T17:43:42.460Z,12.10
2023-04-11T17:46:09.465Z,12.10
2023-04-11T17:48:36.703Z,12.00
2023-04-11T17:51:05.737Z,12.00
2023-04-11T17:56:04.713Z,11.80
2023-04-11T17:58:31.917Z,11.70
2023-04-11T18:00:58.742Z,11.60
2023-04-11T18:03:26.327Z,11.60
2023-04-11T18:05:54.401Z,11.50
2023-04-11T18:08:29.879Z,11.50
2023-04-11T18:11:04.193Z,11.50
2023-04-11T18:13:31.648Z,11.40
2023-04-11T18:15:58.710Z,11.30
2023-04-11T18:18:25.650Z,11.20
2023-04-11T18:20:52.441Z,11.10
2023-04-11T18:23:19.163Z,11.10
2023-04-11T18:25:46.069Z,10.90
2023-04-11T18:28:12.775Z,10.80
2023-04-11T18:30:39.639Z,10.60
2023-04-11T18:33:06.409Z,10.50
2023-04-11T18:35:33.328Z,10.40
2023-04-11T18:38:00.313Z,10.40
2023-04-11T18:40:27.786Z,10.40
2023-04-11T18:42:56.253Z,10.30
2023-04-11T18:45:24.141Z,10.20
2023-04-11T18:47:51.149Z,10.10
2023-04-11T18:50:19.029Z,10.00
2023-04-11T18:52:46.726Z,10.00
2023-04-11T18:55:16.341Z,10.00
2023-04-11T18:57:46.199Z,10.00
2023-04-11T19:00:18.538Z,9.90
2023-04-11T19:02:46.777Z,9.90
2023-04-11T19:05:14.632Z,9.90
2023-04-11T19:07:42.533Z,9.80
2023-04-11T19:10:10.824Z,9.80
2023-04-11T19:12:37.945Z,9.70
2023-04-11T19:15:09.067Z,9.60
2023-04-11T19:17:38.381Z,9.50
2023-04-11T19:20:12.800Z,9.40
2023-04-11T19:22:40.991Z,9.30
2023-04-11T19:25:11.591Z,9.00
2023-04-11T19:27:40.355Z,8.60
2023-04-11T19:30:11.148Z,8.40
2023-04-11T19:32:40.644Z,8.10
2023-04-11T19:35:10.468Z,7.80
2023-04-11T19:37:37.752Z,7.60
2023-04-11T19:40:11.096Z,7.60
2023-04-11T19:42:39.929Z,7.70
2023-04-11T19:45:09.132Z,7.60
2023-04-11T19:47:36.203Z,7.40
2023-04-11T19:50:03.109Z,7.40
2023-04-11T19:52:29.936Z,7.40
2023-04-11T19:54:57.015Z,7.40
2023-04-11T19:57:27.449Z,7.40
2023-04-11T19:59:54.212Z,7.40
2023-04-11T20:02:21.252Z,7.50
2023-04-11T20:04:48.227Z,7.50
2023-04-11T20:07:15.708Z,7.50
2023-04-11T20:09:42.456Z,7.60
2023-04-11T20:12:09.224Z,7.40
2023-04-11T20:14:37.973Z,7.20
2023-04-11T20:17:05.839Z,7.10
2023-04-11T20:19:33.215Z,7.10
2023-04-11T20:22:01.130Z,7.10
2023-04-11T20:24:28.197Z,7.00
2023-04-11T20:26:57.025Z,7.10
2023-04-11T20:29:24.705Z,7.00
2023-04-11T20:31:51.472Z,6.90
2023-04-11T20:34:18.173Z,6.80
2023-04-11T20:36:45.014Z,6.60
2023-04-11T20:39:11.849Z,6.60
2023-04-11T20:41:40.591Z,6.70
2023-04-11T20:44:07.450Z,6.70
2023-04-11T20:46:39.259Z,6.70
2023-04-11T20:49:06.049Z,6.60
2023-04-11T20:51:32.939Z,6.60
2023-04-11T20:53:59.628Z,6.50
2023-04-11T20:56:26.348Z,6.40
2023-04-11T20:58:53.046Z,6.40
2023-04-11T21:01:19.774Z,6.30
2023-04-11T21:03:46.982Z,6.20
2023-04-11T21:06:14.084Z,6.20
2023-04-11T21:08:40.975Z,6.30
2023-04-11T21:11:07.718Z,6.30
2023-04-11T21:13:34.572Z,6.30
2023-04-11T21:16:01.441Z,6.30
2023-04-11T21:18:28.913Z,6.30
2023-04-11T21:20:55.705Z,6.30
2023-04-11T21:23:22.503Z,6.30
2023-04-11T21:25:49.278Z,6.30
2023-04-11T21:28:16.038Z,6.20
2023-04-11T21:30:42.791Z,6.30
2023-04-11T21:33:10.622Z,6.20
2023-04-11T21:38:04.642Z,6.10
2023-04-11T21:40:31.443Z,6.00
2023-04-11T21:42:58.162Z,5.90
2023-04-11T21:45:24.950Z,5.90
2023-04-11T21:47:51.932Z,6.00
2023-04-11T21:50:18.905Z,6.20
2023-04-11T21:52:46.405Z,6.20
2023-04-11T21:55:14.678Z,6.30
2023-04-11T21:57:41.668Z,6.30
2023-04-11T22:00:11.049Z,6.40
2023-04-11T22:02:38.874Z,6.40
2023-04-11T22:05:08.724Z,6.40
2023-04-11T22:07:46.103Z,6.50
2023-04-11T22:10:13.102Z,6.30
2023-04-11T22:12:42.069Z,6.30
2023-04-11T22:15:11.039Z,6.40
2023-04-11T22:17:38.265Z,6.40
2023-04-11T22:20:06.745Z,6.40
2023-04-11T22:22:35.259Z,6.40
2023-04-11T22:25:02.026Z,6.40
2023-04-11T22:27:29.491Z,6.30
2023-04-11T22:29:56.413Z,6.30
2023-04-11T22:32:23.883Z,6.30
2023-04-11T22:34:51.175Z,6.40
2023-04-11T22:37:17.936Z,6.40
2023-04-11T22:39:44.758Z,6.50
2023-04-11T22:42:11.683Z,6.50
2023-04-11T22:44:38.408Z,6.40
2023-04-11T22:47:07.230Z,6.50
2023-04-11T22:49:42.097Z,6.40
2023-04-11T22:52:10.700Z,6.40
2023-04-11T22:54:38.528Z,6.30
2023-04-11T22:57:05.484Z,6.30
2023-04-11T22:59:32.670Z,6.30
2023-04-11T23:01:59.441Z,6.40
2023-04-11T23:04:26.366Z,6.40
2023-04-11T23:06:53.848Z,6.50
2023-04-11T23:09:21.080Z,6.50
2023-04-11T23:14:20.911Z,6.10
2023-04-11T23:16:47.972Z,6.00
2023-04-11T23:19:15.012Z,6.00
2023-04-11T23:21:42.204Z,6.00
2023-04-11T23:24:09.913Z,5.90
2023-04-11T23:26:37.125Z,5.80
2023-04-11T23:29:04.259Z,5.90
2023-04-11T23:31:31.846Z,6.10
2023-04-11T23:33:58.888Z,6.20
2023-04-11T23:36:27.481Z,6.30
2023-04-11T23:41:21.612Z,6.40
2023-04-11T23:43:48.391Z,6.40
2023-04-11T23:46:16.971Z,6.50
2023-04-11T23:48:44.327Z,6.50
2023-04-11T23:51:11.154Z,6.50
2023-04-11T23:53:38.081Z,6.50
2023-04-11T23:56:05.194Z,6.50
2023-04-11T23:58:31.919Z,6.40
